createdAt,value
2023-09-23T00:01:58.853Z,62.46
2023-09-23T00:04:44.456Z,62.44
2023-09-23T00:07:32.247Z,62.29
2023-09-23T00:10:17.553Z,62.41
2023-09-23T00:13:03.387Z,62.36
2023-09-23T00:15:51.093Z,62.40
2023-09-23T00:18:37.112Z,62.41
2023-09-23T00:21:22.485Z,62.29
2023-09-23T00:24:09.725Z,62.34
2023-09-23T00:27:00.645Z,62.46
2023-09-23T00:29:47.145Z,62.39
2023-09-23T00:32:34.005Z,62.16
2023-09-23T00:35:20.632Z,62.38
2023-09-23T00:38:07.857Z,62.25
2023-09-23T00:40:53.999Z,62.09
2023-09-23T00:43:39.466Z,62.23
2023-09-23T00:46:25.067Z,62.28
2023-09-23T00:49:12.226Z,62.04
2023-09-23T00:51:57.738Z,62.26
2023-09-23T00:54:44.038Z,62.25
2023-09-23T00:57:29.613Z,62.19
2023-09-23T01:00:24.796Z,62.16
2023-09-23T01:03:10.470Z,62.20
2023-09-23T01:06:10.009Z,62.21
2023-09-23T01:08:58.612Z,62.00
2023-09-23T01:11:44.328Z,62.13
2023-09-23T01:14:30.143Z,62.17
2023-09-23T01:17:17.123Z,61.92
2023-09-23T01:20:13.566Z,61.97
2023-09-23T01:22:59.469Z,61.98
2023-09-23T01:25:45.413Z,61.99
2023-09-23T01:28:33.674Z,61.99
2023-09-23T01:31:22.686Z,61.89
2023-09-23T01:34:08.387Z,61.99
2023-09-23T01:36:55.234Z,61.79
2023-09-23T01:39:42.430Z,61.73
2023-09-23T01:42:29.928Z,61.85
2023-09-23T01:45:15.502Z,61.88
2023-09-23T01:48:01.157Z,61.81
2023-09-23T01:50:49.018Z,61.75
2023-09-23T01:53:34.434Z,61.89
2023-09-23T01:56:19.668Z,61.70
2023-09-23T01:59:05.158Z,61.67
2023-09-23T02:01:50.640Z,61.65
2023-09-23T02:04:38.445Z,61.68
2023-09-23T02:07:23.713Z,61.64
2023-09-23T02:10:16.167Z,61.79
2023-09-23T02:13:09.794Z,61.67
2023-09-23T02:15:56.702Z,61.71
2023-09-23T02:18:47.036Z,61.66
2023-09-23T02:21:32.410Z,61.49
2023-09-23T02:24:17.690Z,61.63
2023-09-23T02:27:04.696Z,61.67
2023-09-23T02:29:50.948Z,61.70
2023-09-23T02:32:42.241Z,61.61
2023-09-23T02:35:27.821Z,61.56
2023-09-23T02:38:13.202Z,61.50
2023-09-23T02:41:03.813Z,61.54
2023-09-23T02:43:49.244Z,61.48
2023-09-23T02:46:35.218Z,61.37
2023-09-23T02:49:20.547Z,61.44
2023-09-23T02:52:07.461Z,61.42
2023-09-23T02:54:55.855Z,61.32
2023-09-23T02:57:42.537Z,61.39
2023-09-23T03:00:31.662Z,61.38
2023-09-23T03:03:20.595Z,61.44
2023-09-23T03:06:08.385Z,61.68
2023-09-23T03:08:59.237Z,61.54
2023-09-23T03:11:50.241Z,61.50
2023-09-23T03:14:41.654Z,61.43
2023-09-23T03:17:30.101Z,61.53
2023-09-23T03:20:15.773Z,61.44
2023-09-23T03:23:01.395Z,61.41
2023-09-23T03:25:48.658Z,61.50
2023-09-23T03:28:40.859Z,61.35
2023-09-23T03:31:27.319Z,61.53
2023-09-23T03:34:15.953Z,61.46
2023-09-23T03:37:11.491Z,61.66
2023-09-23T03:39:57.600Z,61.59
2023-09-23T03:42:43.706Z,61.40
2023-09-23T03:45:34.578Z,61.63
2023-09-23T03:48:20.953Z,61.35
2023-09-23T03:51:08.233Z,61.32
2023-09-23T03:53:53.932Z,61.37
2023-09-23T03:56:42.803Z,61.58
2023-09-23T03:59:28.028Z,61.31
2023-09-23T04:02:13.283Z,61.39
2023-09-23T04:04:58.698Z,61.37
2023-09-23T04:07:51.585Z,61.41
2023-09-23T04:10:41.103Z,61.50
2023-09-23T04:13:27.172Z,62.62
2023-09-23T04:16:12.687Z,61.65
2023-09-23T04:18:57.923Z,61.99
2023-09-23T04:21:43.436Z,61.60
2023-09-23T04:24:28.770Z,61.65
2023-09-23T04:27:14.103Z,61.71
2023-09-23T04:30:01.725Z,61.32
2023-09-23T04:32:48.044Z,61.34
2023-09-23T04:35:36.277Z,61.23
2023-09-23T04:38:22.081Z,61.17
2023-09-23T04:41:08.271Z,61.13
2023-09-23T04:43:53.771Z,60.87
2023-09-23T04:46:39.706Z,60.84
2023-09-23T04:49:25.316Z,60.73
2023-09-23T04:52:11.448Z,60.61
2023-09-23T04:54:56.688Z,60.54
2023-09-23T04:57:42.259Z,60.47
2023-09-23T05:00:28.213Z,60.53
2023-09-23T05:03:13.804Z,60.35
2023-09-23T05:05:59.817Z,60.19
2023-09-23T05:08:45.674Z,60.16
2023-09-23T05:11:31.906Z,60.21
2023-09-23T05:14:18.685Z,60.49
2023-09-23T05:17:07.028Z,60.23
2023-09-23T05:19:52.632Z,59.96
2023-09-23T05:22:38.084Z,59.97
2023-09-23T05:25:28.289Z,59.77
2023-09-23T05:28:14.194Z,59.67
2023-09-23T05:31:00.305Z,59.69
2023-09-23T05:33:45.955Z,59.74
2023-09-23T05:36:32.729Z,59.38
2023-09-23T05:39:21.337Z,59.60
2023-09-23T05:42:07.036Z,59.41
2023-09-23T05:44:52.275Z,59.49
2023-09-23T05:47:37.880Z,59.23
2023-09-23T05:50:24.561Z,58.99
2023-09-23T05:53:10.138Z,58.96
2023-09-23T05:55:56.218Z,59.22
2023-09-23T05:58:42.134Z,59.06
2023-09-23T06:01:27.531Z,59.19
2023-09-23T06:04:12.994Z,59.26
2023-09-23T06:06:58.468Z,59.08
2023-09-23T06:09:45.121Z,58.88
2023-09-23T06:12:32.343Z,59.05
2023-09-23T06:15:18.037Z,58.83
2023-09-23T06:18:03.630Z,58.61
2023-09-23T06:20:48.808Z,58.28
2023-09-23T06:23:34.326Z,58.29
2023-09-23T06:26:19.558Z,57.89
2023-09-23T06:29:06.069Z,56.32
2023-09-23T06:31:52.656Z,57.24
2023-09-23T06:34:37.915Z,57.41
2023-09-23T06:37:24.285Z,56.67
2023-09-23T06:40:09.787Z,56.84
2023-09-23T06:42:55.401Z,56.49
2023-09-23T06:45:40.994Z,56.56
2023-09-23T06:48:27.721Z,56.71
2023-09-23T06:51:13.669Z,56.80
2023-09-23T06:53:58.918Z,55.46
2023-09-23T06:56:44.685Z,54.88
2023-09-23T06:59:31.094Z,55.55
2023-09-23T07:02:16.888Z,54.60
2023-09-23T07:05:05.457Z,54.83
2023-09-23T07:07:51.890Z,55.05
2023-09-23T07:10:39.892Z,54.84
2023-09-23T07:13:26.276Z,54.80
2023-09-23T07:16:16.303Z,55.09
2023-09-23T07:19:02.502Z,55.93
2023-09-23T07:21:48.418Z,55.99
2023-09-23T07:24:37.012Z,56.27
2023-09-23T07:27:23.801Z,56.30
2023-09-23T07:30:09.605Z,56.16
2023-09-23T07:32:55.362Z,56.42
2023-09-23T07:35:40.774Z,57.09
2023-09-23T07:38:26.238Z,56.65
2023-09-23T07:41:11.725Z,56.69
2023-09-23T07:43:58.205Z,56.79
2023-09-23T07:46:44.758Z,56.90
2023-09-23T07:49:30.427Z,56.49
2023-09-23T07:52:16.523Z,56.18
2023-09-23T07:55:03.648Z,56.30
2023-09-23T07:57:49.192Z,56.28
2023-09-23T08:00:35.545Z,56.33
2023-09-23T08:03:21.504Z,56.55
2023-09-23T08:06:06.831Z,56.46
2023-09-23T08:08:52.249Z,56.48
2023-09-23T08:11:37.736Z,56.36
2023-09-23T08:14:23.661Z,56.00
2023-09-23T08:17:09.189Z,53.26
2023-09-23T08:19:54.671Z,55.08
2023-09-23T08:22:41.770Z,54.99
2023-09-23T08:25:27.378Z,54.76
2023-09-23T08:28:14.817Z,54.87
2023-09-23T08:31:00.376Z,54.87
2023-09-23T08:33:47.225Z,54.42
2023-09-23T08:36:32.759Z,54.09
2023-09-23T08:39:19.505Z,54.65
2023-09-23T08:42:06.041Z,54.39
2023-09-23T08:44:52.296Z,54.42
2023-09-23T08:47:39.310Z,54.03
2023-09-23T08:50:26.359Z,54.05
2023-09-23T08:53:14.537Z,54.17
2023-09-23T08:56:05.366Z,54.09
2023-09-23T08:58:51.807Z,53.27
2023-09-23T09:01:44.714Z,52.22
2023-09-23T09:04:30.472Z,53.31
2023-09-23T09:07:16.974Z,53.64
2023-09-23T09:10:03.757Z,54.04
2023-09-23T09:12:49.588Z,53.22
2023-09-23T09:15:36.589Z,52.96
2023-09-23T09:18:22.332Z,53.11
2023-09-23T09:21:09.712Z,53.19
2023-09-23T09:23:55.260Z,52.41
2023-09-23T09:26:40.707Z,53.06
2023-09-23T09:29:26.352Z,52.70
2023-09-23T09:32:12.560Z,52.92
2023-09-23T09:35:02.704Z,52.78
2023-09-23T09:37:55.454Z,53.00
2023-09-23T09:40:48.399Z,53.06
2023-09-23T09:43:34.846Z,52.88
2023-09-23T09:46:22.007Z,53.15
2023-09-23T09:49:08.982Z,52.22
2023-09-23T09:51:55.064Z,51.82
2023-09-23T09:54:41.351Z,50.95
2023-09-23T09:57:30.389Z,50.53
2023-09-23T10:00:32.283Z,50.74
2023-09-23T10:03:17.790Z,49.94
2023-09-23T10:06:03.603Z,49.73
2023-09-23T10:08:50.236Z,50.25
2023-09-23T10:11:36.845Z,49.11
2023-09-23T10:14:22.319Z,48.83
2023-09-23T10:17:09.268Z,48.16
2023-09-23T10:19:57.259Z,48.59
2023-09-23T10:22:54.089Z,48.19
2023-09-23T10:25:41.928Z,48.33
2023-09-23T10:28:32.034Z,47.94
2023-09-23T10:31:17.728Z,47.70
2023-09-23T10:34:07.656Z,46.80
2023-09-23T10:36:52.671Z,46.14
2023-09-23T10:39:44.663Z,46.09
2023-09-23T10:42:34.443Z,46.26
2023-09-23T10:45:21.898Z,45.86
2023-09-23T10:48:10.129Z,45.92
2023-09-23T10:50:55.835Z,48.76
2023-09-23T10:53:43.332Z,49.62
2023-09-23T10:56:29.236Z,48.73
2023-09-23T10:59:15.034Z,48.87
2023-09-23T11:02:00.589Z,48.51
2023-09-23T11:04:47.768Z,48.30
2023-09-23T11:07:34.464Z,48.24
2023-09-23T11:10:19.938Z,47.08
2023-09-23T11:13:06.667Z,46.77
2023-09-23T11:15:52.426Z,47.60
2023-09-23T11:18:38.772Z,47.45
2023-09-23T11:21:24.209Z,47.67
2023-09-23T11:24:09.989Z,47.58
2023-09-23T11:26:55.512Z,46.27
2023-09-23T11:29:40.918Z,46.22
2023-09-23T11:32:27.903Z,46.89
2023-09-23T11:35:15.655Z,46.39
2023-09-23T11:38:01.307Z,45.98
2023-09-23T11:40:48.113Z,45.91
2023-09-23T11:43:33.797Z,45.18
2023-09-23T11:46:21.146Z,45.23
2023-09-23T11:49:06.401Z,45.76
2023-09-23T11:51:51.614Z,45.52
2023-09-23T11:54:36.993Z,45.98
2023-09-23T11:57:22.664Z,45.09
2023-09-23T12:00:11.096Z,45.18
2023-09-23T12:02:57.140Z,45.62
2023-09-23T12:05:43.160Z,45.09
2023-09-23T12:08:28.424Z,44.59
2023-09-23T12:11:13.865Z,44.58
2023-09-23T12:13:59.238Z,45.37
2023-09-23T12:16:45.509Z,45.92
2023-09-23T12:19:30.758Z,46.19
2023-09-23T12:22:17.398Z,45.51
2023-09-23T12:25:02.785Z,45.39
2023-09-23T12:27:48.111Z,45.19
2023-09-23T12:30:33.761Z,45.19
2023-09-23T12:33:19.197Z,45.82
2023-09-23T12:36:04.698Z,45.42
2023-09-23T12:38:50.368Z,45.08
2023-09-23T12:41:36.953Z,45.28
2023-09-23T12:44:22.286Z,45.14
2023-09-23T12:47:08.124Z,45.36
2023-09-23T12:49:53.665Z,45.62
2023-09-23T12:52:39.195Z,46.30
2023-09-23T12:55:24.639Z,46.39
2023-09-23T12:58:09.925Z,46.95
2023-09-23T13:00:55.525Z,46.54
2023-09-23T13:03:41.576Z,45.75
2023-09-23T13:06:27.300Z,45.34
2023-09-23T13:09:12.641Z,45.47
2023-09-23T13:11:58.522Z,45.79
2023-09-23T13:14:43.889Z,45.90
2023-09-23T13:17:29.369Z,46.24
2023-09-23T13:20:14.761Z,46.26
2023-09-23T13:23:01.035Z,45.06
2023-09-23T13:25:48.033Z,44.32
2023-09-23T13:28:34.428Z,44.55
2023-09-23T13:31:20.335Z,44.57
2023-09-23T13:34:07.285Z,44.60
2023-09-23T13:36:53.151Z,44.64
2023-09-23T13:39:38.483Z,43.83
2023-09-23T13:42:24.012Z,43.58
2023-09-23T13:45:09.654Z,43.24
2023-09-23T13:47:55.388Z,43.22
2023-09-23T13:50:40.672Z,43.39
2023-09-23T13:53:26.115Z,43.43
2023-09-23T13:56:11.412Z,43.70
2023-09-23T13:58:56.752Z,43.91
2023-09-23T14:01:43.066Z,44.68
2023-09-23T14:04:30.267Z,44.33
2023-09-23T14:07:15.481Z,44.33
2023-09-23T14:10:14.579Z,44.53
2023-09-23T14:13:06.067Z,44.67
2023-09-23T14:15:51.563Z,44.57
2023-09-23T14:18:37.602Z,44.39
2023-09-23T14:21:23.457Z,44.36
2023-09-23T14:24:09.143Z,44.17
2023-09-23T14:26:54.621Z,44.06
2023-09-23T14:29:40.876Z,43.89
2023-09-23T14:32:26.426Z,44.00
2023-09-23T14:35:12.181Z,44.20
2023-09-23T14:37:57.222Z,44.32
2023-09-23T14:40:42.735Z,44.49
2023-09-23T14:43:28.049Z,44.71
2023-09-23T14:46:13.706Z,45.10
2023-09-23T14:48:58.996Z,45.32
2023-09-23T14:51:44.320Z,45.27
2023-09-23T14:54:29.851Z,45.26
2023-09-23T14:57:15.296Z,44.77
2023-09-23T15:00:00.887Z,44.79
2023-09-23T15:02:47.008Z,44.83
2023-09-23T15:05:32.700Z,45.30
2023-09-23T15:08:18.290Z,45.70
2023-09-23T15:11:04.064Z,45.74
2023-09-23T15:13:49.559Z,46.05
2023-09-23T15:16:35.286Z,45.65
2023-09-23T15:19:21.130Z,45.64
2023-09-23T15:22:06.571Z,45.75
2023-09-23T15:24:52.824Z,45.61
2023-09-23T15:27:41.331Z,46.26
2023-09-23T15:30:26.792Z,46.82
2023-09-23T15:33:12.660Z,47.06
2023-09-23T15:35:58.214Z,46.98
2023-09-23T15:38:43.694Z,47.31
2023-09-23T15:41:28.885Z,47.28
2023-09-23T15:44:14.446Z,47.59
2023-09-23T15:46:59.613Z,47.63
2023-09-23T15:49:45.156Z,48.05
2023-09-23T15:52:30.715Z,48.36
2023-09-23T15:55:17.165Z,48.47
2023-09-23T15:58:02.782Z,48.64
2023-09-23T16:00:48.731Z,49.08
2023-09-23T16:03:35.100Z,49.26
2023-09-23T16:06:20.698Z,49.33
2023-09-23T16:09:06.152Z,49.45
2023-09-23T16:11:51.780Z,49.80
2023-09-23T16:14:37.241Z,49.68
2023-09-23T16:17:22.689Z,49.86
2023-09-23T16:20:09.058Z,49.75
2023-09-23T16:22:54.548Z,49.20
2023-09-23T16:25:40.417Z,49.33
2023-09-23T16:28:25.431Z,49.37
2023-09-23T16:31:10.839Z,49.33
2023-09-23T16:33:58.044Z,49.35
2023-09-23T16:36:43.382Z,49.75
2023-09-23T16:39:29.919Z,49.41
2023-09-23T16:42:15.776Z,49.62
2023-09-23T16:45:01.438Z,49.90
2023-09-23T16:47:47.315Z,49.99
2023-09-23T16:50:32.499Z,50.25
2023-09-23T16:53:17.996Z,50.34
2023-09-23T16:56:03.386Z,50.08
2023-09-23T16:58:48.803Z,50.12
2023-09-23T17:01:34.278Z,50.14
2023-09-23T17:04:19.544Z,50.11
2023-09-23T17:07:05.131Z,50.02
2023-09-23T17:09:50.623Z,50.08
2023-09-23T17:12:36.501Z,50.10
2023-09-23T17:15:22.582Z,50.13
2023-09-23T17:18:08.583Z,50.33
2023-09-23T17:20:54.191Z,50.12
2023-09-23T17:23:39.394Z,50.16
2023-09-23T17:26:24.722Z,50.16
2023-09-23T17:29:10.186Z,50.37
2023-09-23T17:31:55.475Z,50.36
2023-09-23T17:34:40.954Z,50.40
2023-09-23T17:37:26.243Z,50.37
2023-09-23T17:40:11.682Z,50.31
2023-09-23T17:42:57.363Z,50.29
2023-09-23T17:45:42.713Z,50.20
2023-09-23T17:48:29.743Z,50.30
2023-09-23T17:51:15.091Z,50.22
2023-09-23T17:54:00.418Z,50.38
2023-09-23T17:56:45.852Z,50.10
2023-09-23T17:59:31.679Z,50.05
2023-09-23T18:02:17.409Z,50.22
2023-09-23T18:05:02.589Z,50.27
2023-09-23T18:07:47.877Z,50.28
2023-09-23T18:10:33.857Z,50.24
2023-09-23T18:18:09.786Z,50.29
2023-09-23T18:20:55.983Z,50.35
2023-09-23T18:23:45.250Z,50.37
2023-09-23T18:26:31.038Z,50.49
2023-09-23T18:29:16.459Z,50.50
2023-09-23T18:32:02.070Z,51.08
2023-09-23T18:34:47.795Z,51.08
2023-09-23T18:37:33.523Z,51.13
2023-09-23T18:40:19.275Z,51.25
2023-09-23T18:43:05.991Z,51.24
2023-09-23T18:45:53.374Z,51.58
2023-09-23T18:48:39.402Z,51.51
2023-09-23T18:51:26.434Z,51.66
2023-09-23T18:54:12.600Z,51.87
2023-09-23T18:57:02.031Z,52.01
2023-09-23T18:59:48.531Z,52.06
2023-09-23T19:02:35.568Z,52.05
2023-09-23T19:05:21.606Z,52.12
2023-09-23T19:08:07.974Z,52.27
2023-09-23T19:10:54.727Z,52.25
2023-09-23T19:13:40.591Z,52.62
2023-09-23T19:16:26.787Z,52.57
2023-09-23T19:19:14.126Z,52.45
2023-09-23T19:22:01.628Z,52.57
2023-09-23T19:24:49.181Z,52.56
2023-09-23T19:27:35.799Z,52.58
2023-09-23T19:30:22.115Z,52.67
2023-09-23T19:33:08.061Z,52.81
2023-09-23T19:35:54.640Z,52.95
2023-09-23T19:38:40.606Z,52.85
2023-09-23T19:41:26.515Z,53.08
2023-09-23T19:44:12.877Z,53.01
2023-09-23T19:46:58.727Z,53.12
2023-09-23T19:49:45.094Z,53.10
2023-09-23T19:52:30.852Z,52.99
2023-09-23T19:55:18.201Z,53.31
2023-09-23T19:58:06.124Z,53.14
2023-09-23T20:00:52.907Z,53.40
2023-09-23T20:03:38.613Z,53.71
2023-09-23T20:06:24.538Z,54.18
2023-09-23T20:09:11.667Z,53.79
2023-09-23T20:11:57.516Z,53.94
2023-09-23T20:14:43.923Z,54.01
2023-09-23T20:17:29.567Z,54.04
2023-09-23T20:20:16.276Z,54.07
2023-09-23T20:23:05.308Z,54.05
2023-09-23T20:25:51.195Z,53.85
2023-09-23T20:28:38.194Z,54.04
2023-09-23T20:31:24.064Z,53.95
2023-09-23T20:34:10.017Z,53.90
2023-09-23T20:36:58.933Z,54.00
2023-09-23T20:39:44.290Z,53.99
2023-09-23T20:42:29.425Z,54.01
2023-09-23T20:45:15.006Z,54.08
2023-09-23T20:48:01.872Z,54.14
2023-09-23T20:50:47.662Z,54.02
2023-09-23T20:53:35.884Z,54.03
2023-09-23T20:56:21.208Z,54.07
2023-09-23T20:59:06.775Z,54.19
2023-09-23T21:01:52.396Z,54.09
2023-09-23T21:04:37.783Z,54.10
2023-09-23T21:07:23.283Z,54.19
2023-09-23T21:10:11.796Z,54.09
2023-09-23T21:12:57.546Z,54.03
2023-09-23T21:15:43.434Z,54.26
2023-09-23T21:18:29.981Z,54.20
2023-09-23T21:21:15.722Z,54.25
2023-09-23T21:24:02.514Z,54.25
2023-09-23T21:26:49.352Z,54.26
2023-09-23T21:29:35.206Z,54.07
2023-09-23T21:32:21.586Z,54.18
2023-09-23T21:35:07.605Z,54.37
2023-09-23T21:37:53.012Z,54.37
2023-09-23T21:40:42.485Z,54.25
2023-09-23T21:43:27.835Z,54.31
2023-09-23T21:46:14.673Z,54.33
2023-09-23T21:49:01.735Z,54.28
2023-09-23T21:51:47.139Z,54.29
2023-09-23T21:54:32.516Z,54.25
2023-09-23T21:57:17.807Z,54.27
2023-09-23T22:00:20.178Z,54.34
2023-09-23T22:03:06.318Z,54.14
2023-09-23T22:05:51.871Z,54.27
2023-09-23T22:08:37.143Z,54.28
2023-09-23T22:11:22.285Z,54.20
2023-09-23T22:14:09.724Z,54.15
2023-09-23T22:16:56.041Z,54.30
2023-09-23T22:19:41.384Z,54.16
2023-09-23T22:22:26.791Z,54.07
2023-09-23T22:25:16.495Z,54.04
2023-09-23T22:28:02.136Z,54.14
2023-09-23T22:30:49.012Z,54.33
2023-09-23T22:33:37.927Z,54.14
2023-09-23T22:36:24.137Z,54.26
2023-09-23T22:39:12.952Z,54.15
2023-09-23T22:41:58.524Z,54.17
2023-09-23T22:44:44.350Z,54.05
2023-09-23T22:47:30.165Z,54.11
2023-09-23T22:50:19.784Z,54.16
2023-09-23T22:53:06.515Z,54.11
2023-09-23T22:55:52.124Z,54.16
2023-09-23T22:58:38.486Z,54.16
2023-09-23T23:01:24.194Z,54.13
2023-09-23T23:04:09.928Z,54.13
2023-09-23T23:06:55.848Z,54.05
2023-09-23T23:09:41.160Z,54.18
2023-09-23T23:12:26.404Z,54.05
2023-09-23T23:15:13.195Z,54.10
2023-09-23T23:17:59.663Z,54.04
2023-09-23T23:20:46.539Z,53.91
2023-09-23T23:23:32.846Z,54.15
2023-09-23T23:26:18.368Z,54.02
2023-09-23T23:29:03.896Z,54.08
2023-09-23T23:31:50.408Z,53.99
2023-09-23T23:34:35.919Z,54.00
2023-09-23T23:37:21.765Z,53.97
2023-09-23T23:40:09.120Z,54.20
2023-09-23T23:42:54.969Z,54.03
2023-09-23T23:45:40.544Z,53.96
2023-09-23T23:48:30.761Z,53.93
2023-09-23T23:51:16.706Z,54.14
2023-09-23T23:54:04.169Z,54.10
2023-09-23T23:56:49.615Z,54.03
2023-09-23T23:59:35.362Z,54.03
